Time;durP1;ratioP1;P1;durP2;ratioP2;P2;SDS_P1;SDS_P2;PMS_P1;PMS_P2;Temp;Humidity;BMP_temperature;BMP_pressure;BME280_temperature;BME280_humidity;BME280_pressure;Samples;Min_cycle;Max_cycle;Signal;HPM_P1;HPM_P2
2022/07/04 00:01:35;;;;;;;1.42;0.32;;;;;;;25.93;34.56;102139.66;6246713;23;20085;-43
2022/07/04 00:04:03;;;;;;;1.65;0.50;;;;;;;25.89;34.50;102143.09;6246197;23;20305;-45
2022/07/04 00:06:32;;;;;;;3.60;0.50;;;;;;;25.87;34.63;102127.28;6246034;23;20058;-44
2022/07/04 00:09:00;;;;;;;0.88;0.22;;;;;;;25.86;34.34;102127.25;6219274;23;20386;-41
2022/07/04 00:11:29;;;;;;;0.90;0.30;;;;;;;25.81;34.63;102121.00;6245987;23;20004;-42
2022/07/04 00:13:57;;;;;;;0.25;0.20;;;;;;;25.84;34.50;102121.94;6218612;23;20032;-42
2022/07/04 00:16:26;;;;;;;1.65;0.30;;;;;;;25.83;34.34;102125.41;6246111;23;20028;-43
2022/07/04 00:18:54;;;;;;;0.73;0.40;;;;;;;25.78;34.38;102132.34;6246187;23;20011;-42
2022/07/04 00:21:23;;;;;;;0.65;0.40;;;;;;;25.76;34.60;102128.78;6246062;23;20007;-42
2022/07/04 00:23:51;;;;;;;1.63;0.40;;;;;;;25.76;34.76;102126.16;6245991;23;20004;-42
2022/07/04 00:26:19;;;;;;;1.20;0.30;;;;;;;25.74;34.56;102123.47;6246060;23;20004;-42
2022/07/04 00:28:48;;;;;;;2.65;0.60;;;;;;;25.66;34.54;102111.00;6219204;23;20046;-42
2022/07/04 00:31:16;;;;;;;1.13;0.38;;;;;;;25.71;34.51;102105.00;6245602;23;20000;-45
2022/07/04 00:33:44;;;;;;;2.35;0.32;;;;;;;25.67;34.59;102091.75;6219821;23;20497;-46
2022/07/04 00:36:13;;;;;;;0.38;0.17;;;;;;;25.54;35.01;102101.97;6246061;23;20004;-42
2022/07/04 00:38:45;;;;;;;0.73;0.30;;;;;;;25.45;34.64;102105.25;6245702;23;20094;-46
2022/07/04 00:41:13;;;;;;;0.80;0.20;;;;;;;25.59;34.71;102112.59;6245740;23;20000;-43
2022/07/04 00:43:41;;;;;;;1.65;0.50;;;;;;;25.58;34.75;102106.44;6246179;23;20004;-44
2022/07/04 00:46:10;;;;;;;1.92;0.47;;;;;;;25.51;34.97;102099.25;6246519;23;20000;-43
2022/07/04 00:48:38;;;;;;;1.25;0.40;;;;;;;25.41;35.02;102076.22;6245461;23;20481;-43
2022/07/04 00:51:08;;;;;;;1.48;0.43;;;;;;;25.46;35.11;102091.28;6245859;23;20004;-49
2022/07/04 00:53:36;;;;;;;1.65;0.55;;;;;;;25.45;35.17;102100.00;6245708;23;20434;-43
2022/07/04 00:56:05;;;;;;;0.50;0.28;;;;;;;25.43;35.04;102100.81;6219348;23;20105;-42
2022/07/04 00:58:35;;;;;;;1.70;0.40;;;;;;;25.43;35.01;102095.56;6218757;23;20027;-42
2022/07/04 01:01:03;;;;;;;2.45;0.47;;;;;;;25.44;35.20;102092.09;6244691;23;20004;-47
2022/07/04 01:03:32;;;;;;;1.48;0.50;;;;;;;25.38;35.33;102084.94;6245713;23;19996;-44
2022/07/04 01:06:01;;;;;;;1.13;0.30;;;;;;;25.35;35.01;102074.34;6245440;23;20012;-46
2022/07/04 01:08:30;;;;;;;2.28;0.52;;;;;;;25.34;35.13;102076.06;6244074;23;20008;-42
2022/07/04 01:10:58;;;;;;;1.35;0.40;;;;;;;25.31;35.19;102081.25;6244030;23;20012;-43
2022/07/04 01:13:27;;;;;;;2.03;0.22;;;;;;;25.26;35.59;102082.88;6245608;23;20028;-43
2022/07/04 01:15:56;;;;;;;1.92;0.60;;;;;;;25.24;35.39;102075.78;6245974;23;20056;-42
2022/07/04 01:18:24;;;;;;;1.63;0.50;;;;;;;25.28;35.34;102086.44;6245671;23;20077;-42
2022/07/04 01:20:53;;;;;;;1.17;0.43;;;;;;;25.29;35.17;102077.69;6245911;23;20344;-43
2022/07/04 01:23:22;;;;;;;1.95;0.57;;;;;;;25.26;35.34;102085.50;6245512;23;20442;-44
2022/07/04 01:25:50;;;;;;;2.08;0.32;;;;;;;25.24;35.57;102070.53;6219822;23;20034;-42
2022/07/04 01:28:21;;;;;;;1.70;0.50;;;;;;;25.29;35.29;102079.41;6247887;23;20000;-42
2022/07/04 01:30:50;;;;;;;1.75;0.63;;;;;;;25.29;35.30;102079.41;6247811;23;20004;-42
2022/07/04 01:33:19;;;;;;;1.13;0.47;;;;;;;25.24;35.40;102068.81;6247645;23;20007;-43
2022/07/04 01:35:48;;;;;;;1.45;0.55;;;;;;;25.21;35.43;102076.59;6247661;23;20129;-42
2022/07/04 01:38:16;;;;;;;1.70;0.40;;;;;;;25.18;35.68;102066.91;6220872;23;20088;-42
2022/07/04 01:40:45;;;;;;;1.80;0.60;;;;;;;25.21;35.41;102062.59;6221043;23;20046;-43
2022/07/04 01:43:13;;;;;;;0.80;0.30;;;;;;;25.12;35.78;102055.38;6220693;23;20007;-42
2022/07/04 01:45:42;;;;;;;1.77;0.43;;;;;;;25.13;35.70;102059.78;6247865;23;20023;-43
2022/07/04 01:48:12;;;;;;;2.25;0.32;;;;;;;25.18;35.68;102063.38;6247664;23;20005;-43
2022/07/04 01:50:41;;;;;;;4.05;0.40;;;;;;;25.13;35.82;102058.03;6247455;23;20007;-41
2022/07/04 01:53:10;;;;;;;1.52;0.40;;;;;;;25.16;35.26;102068.63;6247400;23;19996;-44
2022/07/04 01:55:39;;;;;;;2.03;0.43;;;;;;;25.10;35.51;102050.06;6247385;23;20008;-42
2022/07/04 01:58:08;;;;;;;0.95;0.35;;;;;;;25.10;35.49;102051.81;6247310;23;20027;-43
2022/07/04 02:03:24;;;;;;;1.20;0.55;;;;;;;25.07;35.57;102047.34;6215712;23;20004;-42
2022/07/04 02:05:52;;;;;;;4.68;1.15;;;;;;;25.15;35.52;102064.22;6220804;23;20436;-42
2022/07/04 02:08:21;;;;;;;0.47;0.35;;;;;;;25.09;35.62;102058.78;6196591;23;20012;-42
2022/07/04 02:10:49;;;;;;;1.05;0.30;;;;;;;25.08;35.41;102057.00;6247595;23;20427;-43
2022/07/04 02:13:18;;;;;;;4.13;0.50;;;;;;;24.95;35.51;102040.09;6246842;23;20015;-42
2022/07/04 02:15:46;;;;;;;0.70;0.40;;;;;;;24.97;35.45;102045.34;6247618;23;20105;-42
2022/07/04 02:18:14;;;;;;;0.88;0.20;;;;;;;24.98;35.75;102061.16;6247498;23;20008;-42
2022/07/04 02:20:43;;;;;;;1.10;0.38;;;;;;;24.94;35.63;102045.28;6247430;23;20370;-46
2022/07/04 02:23:11;;;;;;;1.25;0.50;;;;;;;24.97;35.72;102050.59;6247172;23;20000;-42
2022/07/04 02:25:40;;;;;;;2.58;0.50;;;;;;;25.03;35.52;102058.66;6247394;23;20050;-42
2022/07/04 02:28:08;;;;;;;3.92;0.57;;;;;;;24.98;35.58;102048.03;6246910;23;20008;-42
2022/07/04 02:30:37;;;;;;;1.98;0.40;;;;;;;25.02;35.70;102052.50;6220405;23;20008;-43
2022/07/04 02:33:06;;;;;;;1.58;0.32;;;;;;;25.03;35.52;102061.28;6220986;23;20004;-45
2022/07/04 02:35:34;;;;;;;1.27;0.47;;;;;;;25.07;35.82;102062.25;6247577;23;20105;-42
2022/07/04 02:38:02;;;;;;;2.33;0.40;;;;;;;24.92;35.81;102039.09;6246799;23;20011;-42
2022/07/04 02:40:31;;;;;;;1.13;0.38;;;;;;;25.07;35.56;102072.75;6247075;23;20038;-42
2022/07/04 02:42:59;;;;;;;1.23;0.40;;;;;;;25.05;35.28;102056.06;6246930;23;20000;-43
2022/07/04 02:45:28;;;;;;;2.10;0.40;;;;;;;25.07;35.24;102057.84;6246918;23;20361;-43
2022/07/04 02:47:56;;;;;;;2.30;0.60;;;;;;;24.98;35.54;102055.00;6246679;23;20000;-42
2022/07/04 02:50:25;;;;;;;0.73;0.20;;;;;;;24.98;35.61;102061.16;6246857;23;20007;-42
2022/07/04 02:52:53;;;;;;;2.08;0.63;;;;;;;24.93;35.62;102054.91;6247171;23;20446;-42
2022/07/04 02:55:22;;;;;;;1.35;0.30;;;;;;;24.85;35.85;102054.69;6247268;23;20000;-42
2022/07/04 02:57:50;;;;;;;1.65;0.50;;;;;;;24.98;35.60;102069.03;6246852;23;20071;-44
2022/07/04 03:00:19;;;;;;;2.08;0.43;;;;;;;24.99;35.58;102073.41;6247202;23;20000;-43
2022/07/04 03:02:48;;;;;;;1.50;0.40;;;;;;;25.01;35.25;102057.72;6247218;23;20489;-43
2022/07/04 03:05:16;;;;;;;1.95;0.40;;;;;;;25.01;35.38;102066.47;6246745;23;20000;-42
2022/07/04 03:07:45;;;;;;;1.20;0.38;;;;;;;24.92;35.78;102067.97;6246619;23;20474;-42
2022/07/04 03:10:14;;;;;;;0.98;0.50;;;;;;;24.91;35.43;102059.22;6246580;23;20000;-43
2022/07/04 03:12:43;;;;;;;1.67;0.52;;;;;;;24.87;35.41;102052.09;6247051;23;20509;-47
2022/07/04 03:15:11;;;;;;;1.02;0.30;;;;;;;24.95;35.34;102066.34;6246879;23;20374;-42
2022/07/04 03:17:40;;;;;;;2.17;0.57;;;;;;;24.93;35.36;102060.16;6246626;23;20028;-42
2022/07/04 03:20:09;;;;;;;1.38;0.40;;;;;;;24.96;35.55;102065.50;6247207;23;20004;-43
2022/07/04 03:22:38;;;;;;;1.98;0.40;;;;;;;24.93;35.44;102072.38;6246653;23;20004;-42
2022/07/04 03:25:06;;;;;;;1.00;0.50;;;;;;;24.87;35.85;102074.00;6247171;23;20141;-42
2022/07/04 03:27:35;;;;;;;3.95;0.50;;;;;;;24.70;35.88;102049.03;6246307;23;20000;-43
2022/07/04 03:30:04;;;;;;;1.42;0.50;;;;;;;24.88;35.38;102067.91;6246877;23;20004;-42
2022/07/04 03:32:33;;;;;;;1.48;0.55;;;;;;;24.85;35.70;102059.03;6246902;23;20078;-42
2022/07/04 03:35:01;;;;;;;2.42;0.60;;;;;;;24.72;35.30;102037.72;6246829;23;20004;-43
2022/07/04 03:37:30;;;;;;;1.85;0.55;;;;;;;24.82;35.35;102064.25;6246505;23;20309;-50
2022/07/04 03:39:59;;;;;;;0.75;0.40;;;;;;;24.79;35.52;102069.41;6246243;23;20039;-43
2022/07/04 03:42:27;;;;;;;2.80;0.85;;;;;;;24.74;35.38;102064.00;6219902;23;20431;-43
2022/07/04 03:44:55;;;;;;;1.58;0.30;;;;;;;24.73;35.49;102070.13;6219701;23;20008;-43
2022/07/04 03:47:24;;;;;;;0.43;0.30;;;;;;;24.71;35.70;102062.19;6246138;23;20004;-43
2022/07/04 03:49:51;;;;;;;1.35;0.70;;;;;;;24.73;35.59;102068.38;6218854;23;20004;-42
2022/07/04 03:52:20;;;;;;;2.08;0.52;;;;;;;24.71;35.53;102072.69;6246020;23;20075;-42
2022/07/04 03:54:48;;;;;;;2.65;0.40;;;;;;;24.79;35.24;102072.91;6245866;23;20043;-43
2022/07/04 03:57:17;;;;;;;1.27;0.30;;;;;;;24.79;35.63;102074.66;6246789;23;20000;-43
2022/07/04 03:59:46;;;;;;;0.75;0.25;;;;;;;24.59;35.88;102056.59;6246717;23;20023;-42
2022/07/04 04:02:15;;;;;;;0.80;0.30;;;;;;;24.73;35.75;102081.50;6246003;23;20305;-42
2022/07/04 04:07:31;;;;;;;1.98;0.35;;;;;;;24.74;35.41;102077.13;6235875;23;20083;-53
2022/07/04 04:09:59;;;;;;;1.65;0.50;;;;;;;24.72;35.55;102073.59;6246321;23;20007;-47
2022/07/04 04:12:26;;;;;;;1.58;0.45;;;;;;;24.61;35.69;102077.59;6245590;23;20004;-43
2022/07/04 04:14:55;;;;;;;1.42;0.40;;;;;;;24.62;35.49;102063.63;6246404;23;20030;-43
2022/07/04 04:17:23;;;;;;;0.73;0.30;;;;;;;24.66;35.48;102076.00;6246370;23;20004;-45
2022/07/04 04:19:52;;;;;;;0.82;0.30;;;;;;;24.72;35.46;102086.72;6246026;23;20000;-46
2022/07/04 04:22:20;;;;;;;1.52;0.50;;;;;;;24.70;35.59;102080.53;6220173;23;20004;-47
2022/07/04 04:24:49;;;;;;;1.08;0.45;;;;;;;24.70;35.84;102085.78;6245936;23;20004;-47
2022/07/04 04:27:17;;;;;;;1.55;0.40;;;;;;;24.64;35.29;102089.09;6246177;23;20004;-42
2022/07/04 04:29:46;;;;;;;0.57;0.20;;;;;;;24.61;35.60;102082.84;6246184;23;20008;-43
2022/07/04 04:32:15;;;;;;;1.58;0.30;;;;;;;24.62;35.72;102080.28;6246662;23;20023;-45
2022/07/04 04:34:44;;;;;;;1.25;0.30;;;;;;;24.63;35.40;102084.69;6246010;23;20367;-47
2022/07/04 04:37:12;;;;;;;1.40;0.40;;;;;;;24.60;35.74;102081.97;6246228;23;20000;-43
2022/07/04 04:39:41;;;;;;;0.52;0.20;;;;;;;24.68;35.32;102085.69;6245760;23;20105;-45
2022/07/04 04:42:10;;;;;;;1.35;0.50;;;;;;;24.63;35.31;102086.41;6246012;23;20062;-44
2022/07/04 04:44:38;;;;;;;1.45;0.30;;;;;;;24.52;35.58;102083.47;6245907;23;20008;-43
2022/07/04 04:47:06;;;;;;;2.38;0.50;;;;;;;24.55;35.76;102096.69;6245602;23;20000;-47
2022/07/04 04:49:35;;;;;;;2.13;0.40;;;;;;;24.55;35.38;102104.56;6245212;23;20432;-49
2022/07/04 04:52:05;;;;;;;0.30;0.20;;;;;;;24.54;35.47;102113.25;6245796;23;20000;-44
2022/07/04 04:54:34;;;;;;;2.05;0.35;;;;;;;24.53;35.76;102108.88;6245648;23;20004;-53
2022/07/04 04:57:03;;;;;;;1.45;0.38;;;;;;;24.53;35.59;102109.78;6245709;23;20071;-47
2022/07/04 04:59:32;;;;;;;0.88;0.30;;;;;;;24.55;35.39;102108.09;6245914;23;20561;-44
2022/07/04 05:02:01;;;;;;;1.90;0.30;;;;;;;24.57;35.35;102115.97;6245396;23;20016;-43
2022/07/04 05:04:29;;;;;;;3.85;0.45;;;;;;;24.50;35.66;102112.28;6246368;23;19996;-43
2022/07/04 05:06:58;;;;;;;1.48;0.40;;;;;;;24.51;35.70;102114.06;6245909;23;20012;-47
2022/07/04 05:09:27;;;;;;;1.30;0.60;;;;;;;24.49;35.32;102113.13;6245690;23;20008;-44
2022/07/04 05:11:56;;;;;;;1.75;0.30;;;;;;;24.46;35.63;102126.16;6245469;23;20336;-45
2022/07/04 05:14:25;;;;;;;1.40;0.30;;;;;;;24.45;35.87;102131.38;6219228;23;20079;-49
2022/07/04 05:16:53;;;;;;;1.02;0.40;;;;;;;24.48;35.75;102136.72;6246028;23;20012;-46
2022/07/04 05:19:22;;;;;;;2.17;0.40;;;;;;;24.46;35.83;102138.41;6245605;23;20004;-44
2022/07/04 05:21:51;;;;;;;1.45;0.30;;;;;;;24.42;35.63;102137.41;6245834;23;20000;-43
2022/07/04 05:24:20;;;;;;;2.50;0.65;;;;;;;24.45;35.94;102147.13;6218534;23;20028;-50
2022/07/04 05:26:48;;;;;;;1.90;0.40;;;;;;;24.40;35.74;102155.72;6244894;23;20012;-43
2022/07/04 05:29:17;;;;;;;3.10;0.32;;;;;;;24.42;35.71;102156.66;6245546;23;20095;-44
2022/07/04 05:31:45;;;;;;;1.80;0.60;;;;;;;24.50;35.60;102156.91;6245798;23;20032;-44
2022/07/04 05:34:14;;;;;;;2.42;0.40;;;;;;;24.58;35.73;102170.22;6245946;23;20004;-43
2022/07/04 05:36:42;;;;;;;0.60;0.30;;;;;;;24.58;35.95;102170.22;6245865;23;20016;-44
2022/07/04 05:39:11;;;;;;;1.08;0.40;;;;;;;24.45;35.94;102145.38;6245452;23;20011;-42
2022/07/04 05:41:39;;;;;;;1.85;0.50;;;;;;;24.57;36.16;102168.44;6245441;23;20000;-45
2022/07/04 05:44:08;;;;;;;1.27;0.50;;;;;;;24.63;35.73;102167.75;6245591;23;20534;-46
2022/07/04 05:46:37;;;;;;;2.63;0.30;;;;;;;24.71;35.43;102164.53;6245532;23;20054;-48
2022/07/04 05:49:06;;;;;;;1.08;0.30;;;;;;;24.80;35.18;102173.53;6245542;23;20004;-44
2022/07/04 05:51:35;;;;;;;2.58;0.40;;;;;;;24.84;35.16;102184.16;6245595;23;20011;-43
2022/07/04 05:54:03;;;;;;;0.52;0.30;;;;;;;24.84;35.30;102172.75;6245823;23;20000;-45
2022/07/04 05:56:32;;;;;;;2.17;0.45;;;;;;;24.94;35.35;102179.16;6245341;23;20036;-44
2022/07/04 05:59:00;;;;;;;3.13;0.35;;;;;;;24.94;35.66;102187.03;6244981;23;20443;-43
2022/07/04 06:01:29;;;;;;;3.22;0.40;;;;;;;25.04;35.33;102189.06;6245514;23;20004;-43
2022/07/04 06:03:57;;;;;;;0.82;0.30;;;;;;;25.05;35.50;102176.81;6245748;23;20000;-46
2022/07/04 06:06:26;;;;;;;1.42;0.17;;;;;;;25.11;35.61;102182.25;6245380;23;20043;-42
2022/07/04 06:08:55;;;;;;;0.90;0.20;;;;;;;25.15;35.49;102179.75;6245262;23;20008;-45
2022/07/04 06:11:24;;;;;;;2.05;0.50;;;;;;;25.23;35.60;102186.97;6243918;23;20454;-44
2022/07/04 06:13:53;;;;;;;1.95;0.50;;;;;;;25.32;35.31;102182.81;6246454;23;20364;-44
2022/07/04 06:16:21;;;;;;;1.40;0.35;;;;;;;25.40;35.24;102182.13;6247624;23;20404;-45
2022/07/04 06:18:50;;;;;;;0.28;0.20;;;;;;;25.40;35.35;102184.78;6247588;23;20008;-48
2022/07/04 06:21:18;;;;;;;2.67;0.20;;;;;;;25.39;35.65;102189.16;6247267;23;20015;-45
2022/07/04 06:23:46;;;;;;;0.90;0.30;;;;;;;25.33;35.65;102175.84;6247335;23;20011;-43
2022/07/04 06:26:15;;;;;;;0.95;0.35;;;;;;;25.42;35.69;102191.88;6247491;23;20067;-44
2022/07/04 06:28:44;;;;;;;3.50;0.90;;;;;;;25.48;36.04;102183.28;6247104;23;20083;-46
2022/07/04 06:31:13;;;;;;;2.72;0.30;;;;;;;25.51;35.93;102190.34;6220388;23;20079;-43
2022/07/04 06:36:30;;;;;;;0.80;0.30;;;;;;;25.60;35.61;102193.19;6241680;23;20003;-46
2022/07/04 06:38:59;;;;;;;1.65;0.38;;;;;;;25.67;35.80;102194.22;6246997;23;20008;-44
2022/07/04 06:41:27;;;;;;;2.90;0.68;;;;;;;25.71;35.93;102183.84;6245498;23;20001;-44
2022/07/04 06:43:56;;;;;;;1.50;0.60;;;;;;;25.76;35.95;102195.34;6247348;23;20428;-47
2022/07/04 06:46:25;;;;;;;3.15;0.60;;;;;;;25.77;35.40;102185.75;6246991;23;20008;-45
2022/07/04 06:48:53;;;;;;;3.72;0.52;;;;;;;25.86;35.65;102193.84;6219907;23;20008;-44
2022/07/04 06:51:22;;;;;;;1.88;0.40;;;;;;;25.91;35.95;102201.84;6246846;23;20004;-43
2022/07/04 06:53:51;;;;;;;3.40;0.60;;;;;;;25.81;35.81;102174.47;6247225;23;20080;-45
2022/07/04 06:56:20;;;;;;;3.22;0.65;;;;;;;25.93;35.95;102184.34;6246987;23;20369;-44
2022/07/04 06:58:48;;;;;;;1.65;0.47;;;;;;;25.99;35.89;102192.41;6246965;23;20016;-43
2022/07/04 07:01:17;;;;;;;0.95;0.30;;;;;;;26.05;35.93;102196.91;6247233;23;20495;-44
2022/07/04 07:03:46;;;;;;;1.98;0.57;;;;;;;25.97;35.91;102174.84;6246793;23;20000;-46
2022/07/04 07:06:14;;;;;;;1.10;0.30;;;;;;;26.14;35.85;102191.03;6246231;23;20012;-46
2022/07/04 07:08:43;;;;;;;0.63;0.20;;;;;;;26.18;35.84;102193.75;6220301;23;20011;-44
2022/07/04 07:11:12;;;;;;;3.10;0.40;;;;;;;26.23;35.86;102194.75;6246667;23;20335;-48
2022/07/04 07:13:43;;;;;;;0.10;0.10;;;;;;;26.25;35.97;102189.50;6246532;23;20344;-46
2022/07/04 07:16:12;;;;;;;1.58;0.40;;;;;;;26.29;35.95;102191.38;6246816;23;20432;-53
2022/07/04 07:18:40;;;;;;;1.88;0.25;;;;;;;26.34;36.08;102186.19;6246826;23;20339;-43
2022/07/04 07:21:08;;;;;;;0.82;0.30;;;;;;;26.40;35.75;102191.63;6246454;23;20035;-45
2022/07/04 07:23:41;;;;;;;1.23;0.50;;;;;;;26.43;35.89;102191.69;6246937;23;20000;-43
2022/07/04 07:26:11;;;;;;;0.80;0.32;;;;;;;26.49;35.67;102189.16;6247062;23;20000;-45
2022/07/04 07:28:39;;;;;;;1.23;0.30;;;;;;;26.55;35.54;102193.72;6219644;23;20008;-47
2022/07/04 07:31:07;;;;;;;2.08;0.68;;;;;;;26.56;35.97;102187.56;6246691;23;20138;-49
2022/07/04 07:33:36;;;;;;;1.50;0.40;;;;;;;26.60;35.92;102191.16;6246768;23;19996;-43
2022/07/04 07:36:05;;;;;;;2.03;0.35;;;;;;;26.66;35.63;102193.91;6246412;23;20012;-46
2022/07/04 07:38:33;;;;;;;1.58;0.40;;;;;;;26.70;35.58;102193.13;6245021;23;20000;-47
2022/07/04 07:41:02;;;;;;;0.52;0.13;;;;;;;26.68;35.75;102182.56;6220241;23;20001;-43
2022/07/04 07:43:31;;;;;;;1.33;0.40;;;;;;;26.75;35.67;102187.94;6246205;23;20427;-45
2022/07/04 07:46:00;;;;;;;2.38;0.50;;;;;;;26.79;35.66;102192.41;6246437;23;20008;-50
2022/07/04 07:48:28;;;;;;;2.92;0.47;;;;;;;26.75;35.73;102194.13;6246051;23;20451;-47
2022/07/04 07:50:57;;;;;;;2.05;0.38;;;;;;;26.79;35.61;102189.78;6219530;23;20391;-45
2022/07/04 07:53:25;;;;;;;0.70;0.35;;;;;;;26.84;35.59;102201.34;6246591;23;20004;-46
2022/07/04 07:55:54;;;;;;;2.45;0.50;;;;;;;26.82;35.77;102198.66;6246356;23;20000;-46
2022/07/04 07:58:23;;;;;;;1.02;0.20;;;;;;;26.81;35.67;102194.25;6244416;23;20019;-42
2022/07/04 08:00:51;;;;;;;1.83;0.63;;;;;;;26.82;35.47;102193.41;6246082;23;20432;-43
2022/07/04 08:06:07;;;;;;;1.17;0.50;;;;;;;26.82;35.47;102195.16;6240896;23;20011;-47
2022/07/04 08:08:36;;;;;;;1.35;0.40;;;;;;;26.80;35.92;102191.59;6246136;23;20004;-45
2022/07/04 08:11:05;;;;;;;0.45;0.20;;;;;;;26.81;35.62;102202.16;6246278;23;20301;-44
2022/07/04 08:13:33;;;;;;;1.02;0.60;;;;;;;26.83;35.29;102202.19;6245607;23;20004;-47
2022/07/04 08:16:02;;;;;;;1.70;0.30;;;;;;;26.84;35.55;102196.94;6246069;23;20004;-48
2022/07/04 08:18:31;;;;;;;1.20;0.40;;;;;;;26.87;35.48;102193.53;6246430;23;20004;-44
2022/07/04 08:21:00;;;;;;;0.75;0.40;;;;;;;26.86;35.40;102182.94;6246350;23;20061;-44
2022/07/04 08:23:29;;;;;;;1.05;0.20;;;;;;;26.85;35.45;102197.88;6245957;23;20527;-48
2022/07/04 08:25:57;;;;;;;1.33;0.32;;;;;;;26.87;35.27;102195.25;6246382;23;20004;-44
2022/07/04 08:28:27;;;;;;;1.45;0.30;;;;;;;26.90;35.27;102196.19;6246165;23;20083;-44
2022/07/04 08:30:55;;;;;;;1.65;0.40;;;;;;;26.84;35.49;102196.94;6219385;23;20070;-44
2022/07/04 08:33:24;;;;;;;0.60;0.30;;;;;;;26.86;35.29;102188.19;6246190;23;20024;-43
2022/07/04 08:35:53;;;;;;;0.63;0.20;;;;;;;26.92;35.20;102191.84;6245797;23;20004;-53
2022/07/04 08:38:22;;;;;;;1.17;0.25;;;;;;;26.96;35.26;102185.78;6246061;23;20471;-45
2022/07/04 08:40:51;;;;;;;5.30;0.40;;;;;;;26.99;35.05;102195.47;6245944;23;20000;-46
2022/07/04 08:43:24;;;;;;;1.17;0.38;;;;;;;26.96;35.40;102191.06;6244380;23;20517;-46
2022/07/04 08:45:55;;;;;;;4.95;0.65;;;;;;;26.96;35.24;102191.06;6246618;23;20396;-43
2022/07/04 08:48:26;;;;;;;1.55;0.40;;;;;;;27.00;35.15;102184.09;6246318;23;20012;-47
2022/07/04 08:51:05;;;;;;;3.33;0.63;;;;;;;26.99;35.16;102190.22;6246306;23;20458;-44
2022/07/04 08:53:35;;;;;;;1.92;0.32;;;;;;;27.04;35.32;102182.44;6244713;23;20432;-43
2022/07/04 08:58:51;;;;;;;2.33;0.40;;;;;;;27.12;34.84;102180.81;6234703;23;20016;-42
2022/07/04 09:01:20;;;;;;;0.10;0.10;;;;;;;27.12;34.95;102176.44;6246228;23;20427;-46
2022/07/04 09:03:49;;;;;;;1.50;0.30;;;;;;;27.19;34.76;102176.53;6244311;23;20008;-45
2022/07/04 09:06:18;;;;;;;0.60;0.20;;;;;;;27.20;34.81;102173.06;6219427;23;20100;-42
2022/07/04 09:08:46;;;;;;;0.95;0.30;;;;;;;27.20;34.94;102175.69;6219242;23;20007;-43
2022/07/04 09:11:15;;;;;;;0.57;0.30;;;;;;;27.24;34.90;102180.16;6246089;23;20004;-43
2022/07/04 09:13:43;;;;;;;1.75;0.30;;;;;;;27.26;34.90;102176.69;6245680;23;20007;-42
2022/07/04 09:16:12;;;;;;;2.58;0.57;;;;;;;27.32;34.69;102183.81;6246032;23;20004;-44
2022/07/04 09:18:40;;;;;;;1.80;0.30;;;;;;;27.26;34.80;102176.69;6246060;23;20327;-43
2022/07/04 09:21:09;;;;;;;0.20;0.20;;;;;;;27.28;34.79;102176.72;6246337;23;20016;-42
2022/07/04 09:23:42;;;;;;;0.93;0.30;;;;;;;27.33;34.89;102184.72;6245908;23;20053;-45
2022/07/04 09:26:15;;;;;;;2.92;0.40;;;;;;;27.37;34.90;102178.66;6245919;23;20361;-43
2022/07/04 09:28:45;;;;;;;1.60;0.40;;;;;;;27.41;34.73;102176.09;6245463;23;20008;-49
2022/07/04 09:31:16;;;;;;;1.73;0.40;;;;;;;27.39;34.72;102185.69;6245707;23;20004;-45
2022/07/04 09:33:49;;;;;;;2.72;0.30;;;;;;;27.42;34.65;102184.84;6218852;23;20331;-45
2022/07/04 09:36:20;;;;;;;1.33;0.40;;;;;;;27.48;34.72;102179.75;6245700;23;20015;-46
2022/07/04 09:39:11;;;;;;;0.80;0.30;;;;;;;27.47;34.64;102185.00;6245886;23;20012;-47
2022/07/04 09:42:00;;;;;;;3.47;0.35;;;;;;;27.50;34.72;102177.13;6219650;23;20032;-50
2022/07/04 09:44:29;;;;;;;1.05;0.30;;;;;;;27.49;34.47;102178.88;6237425;23;20502;-43
2022/07/04 09:46:58;;;;;;;0.75;0.30;;;;;;;27.51;34.50;102190.34;6246200;23;20042;-43
2022/07/04 09:49:27;;;;;;;3.08;0.20;;;;;;;27.52;34.55;102180.66;6247603;23;20305;-44
2022/07/04 09:51:55;;;;;;;0.52;0.38;;;;;;;27.53;34.37;102183.34;6248087;23;20026;-45
2022/07/04 09:54:32;;;;;;;1.25;0.30;;;;;;;27.55;34.59;102186.00;6247789;23;20156;-46
2022/07/04 09:57:03;;;;;;;0.30;0.15;;;;;;;27.56;34.34;102179.88;6247961;23;20428;-46
2022/07/04 09:59:32;;;;;;;1.80;0.30;;;;;;;27.55;34.39;102173.69;6220682;23;20367;-43
2022/07/04 10:02:11;;;;;;;2.72;0.40;;;;;;;27.58;34.49;102183.44;6247250;23;20008;-43
2022/07/04 10:04:43;;;;;;;0.30;0.22;;;;;;;27.65;34.27;102172.09;6247372;23;20324;-43
2022/07/04 10:07:11;;;;;;;0.98;0.30;;;;;;;27.62;34.42;102164.16;6247234;23;20431;-44
2022/07/04 10:09:40;;;;;;;0.90;0.20;;;;;;;27.64;34.46;102174.72;6247631;23;20004;-44
2022/07/04 10:12:10;;;;;;;0.70;0.28;;;;;;;27.64;34.42;102169.47;6247215;23;20341;-45
2022/07/04 10:14:39;;;;;;;0.60;0.35;;;;;;;27.64;34.48;102172.97;6221392;23;20012;-43
2022/07/04 10:17:08;;;;;;;1.05;0.28;;;;;;;27.70;34.21;102167.81;6247467;23;20000;-45
2022/07/04 10:19:36;;;;;;;2.72;0.73;;;;;;;27.69;34.07;102170.44;6247209;23;20015;-47
2022/07/04 10:22:05;;;;;;;1.67;0.32;;;;;;;27.68;34.14;102166.88;6247522;23;20000;-44
2022/07/04 10:24:33;;;;;;;0.85;0.20;;;;;;;27.73;34.09;102175.75;6247390;23;20079;-47
2022/07/04 10:27:02;;;;;;;2.97;0.68;;;;;;;27.72;34.01;102167.81;6247392;23;20000;-46
2022/07/04 10:29:29;;;;;;;3.55;0.50;;;;;;;27.74;34.00;102172.28;6220814;23;20008;-44
2022/07/04 10:31:58;;;;;;;1.63;0.30;;;;;;;27.71;34.14;102161.66;6245844;23;20008;-47
2022/07/04 10:34:27;;;;;;;0.47;0.20;;;;;;;27.78;33.86;102170.56;6220656;23;20004;-45
2022/07/04 10:36:55;;;;;;;1.05;0.30;;;;;;;27.83;33.92;102160.06;6247016;23;20424;-47
2022/07/04 10:39:24;;;;;;;1.63;0.47;;;;;;;27.83;33.80;102162.72;6246936;23;20010;-44
2022/07/04 10:42:02;;;;;;;2.72;0.43;;;;;;;27.78;33.87;102160.00;6220664;23;20072;-46
2022/07/04 10:44:37;;;;;;;2.70;0.47;;;;;;;27.84;33.80;102159.22;6246964;23;20000;-45
2022/07/04 10:47:06;;;;;;;2.40;0.30;;;;;;;27.88;33.70;102169.81;6247019;23;20011;-48
2022/07/04 10:49:36;;;;;;;1.30;0.50;;;;;;;27.84;33.91;102168.03;6245669;23;20067;-48
2022/07/04 10:52:06;;;;;;;1.40;0.30;;;;;;;27.86;33.79;102165.41;6220258;23;20066;-46
2022/07/04 10:54:37;;;;;;;1.30;0.32;;;;;;;27.90;33.68;102161.97;6246648;23;20007;-46
2022/07/04 10:57:25;;;;;;;1.83;0.50;;;;;;;27.85;33.74;102161.91;6247454;23;20004;-44
2022/07/04 10:59:54;;;;;;;0.50;0.32;;;;;;;27.93;33.59;102176.94;6244912;23;20012;-45
2022/07/04 11:02:25;;;;;;;3.17;0.85;;;;;;;27.89;33.68;102155.78;6246909;23;20132;-47
2022/07/04 11:04:55;;;;;;;1.55;0.40;;;;;;;27.94;33.61;102161.16;6247099;23;20004;-48
2022/07/04 11:07:34;;;;;;;0.98;0.17;;;;;;;27.94;33.56;102157.59;6246846;23;20482;-54
2022/07/04 11:10:22;;;;;;;1.63;0.45;;;;;;;27.98;33.39;102162.06;6247032;23;20039;-47
2022/07/04 11:12:59;;;;;;;0.50;0.20;;;;;;;27.96;33.60;102161.16;6247007;23;20071;-45
2022/07/04 11:15:28;;;;;;;0.68;0.30;;;;;;;27.98;33.50;102155.03;6247149;23;20067;-44
2022/07/04 11:17:59;;;;;;;1.58;0.70;;;;;;;27.98;33.38;102149.75;6219900;23;20015;-44
2022/07/04 11:20:29;;;;;;;1.73;0.30;;;;;;;27.95;33.40;102149.75;6220568;23;20074;-44
2022/07/04 11:23:15;;;;;;;0.90;0.40;;;;;;;27.97;33.49;102147.13;6247820;23;20309;-48
2022/07/04 11:25:45;;;;;;;1.38;0.60;;;;;;;27.98;33.45;102149.75;6246662;23;20038;-46
2022/07/04 11:28:25;;;;;;;1.83;0.52;;;;;;;27.91;33.72;102142.63;6245294;23;20428;-43
2022/07/04 11:30:54;;;;;;;0.93;0.30;;;;;;;28.03;33.22;102148.09;6246523;23;20011;-44
2022/07/04 11:33:24;;;;;;;2.10;0.40;;;;;;;28.02;33.38;102148.06;6246750;23;19996;-42
2022/07/04 11:36:14;;;;;;;2.00;0.38;;;;;;;28.00;33.51;102144.53;6246757;23;20092;-51
2022/07/04 11:38:55;;;;;;;1.27;0.40;;;;;;;28.04;33.52;102141.06;6220121;23;20004;-42
2022/07/04 11:47:26;;;;;;;0.90;0.30;;;;;;;28.11;33.33;102147.34;6231839;23;20079;-43
2022/07/04 11:49:57;;;;;;;0.50;0.20;;;;;;;28.05;33.21;102135.81;6238630;23;20015;-44
2022/07/04 11:52:27;;;;;;;3.67;0.30;;;;;;;28.15;33.29;102146.50;6247503;23;20004;-43
2022/07/04 11:54:56;;;;;;;1.67;0.30;;;;;;;28.05;33.29;102141.09;6219915;23;20000;-42